CPA884 VHHH-KLAX
Flight info
| Callsign | CPA884 |
|---|---|
| Flight time | N/A |
| Altitude | 39000 |
| Route | |
| Aircraft | B77W/H-VGDW/C |
Departure
| Time | N/A |
|---|---|
| Airport | Hong Kong International Airport (VHHH) |
Arrival
| Time | 2026-05-05 17:51 |
|---|---|
| Airport | Los Angeles International Airport (KLAX) |
| Time | Latitude | Longitude | Altitude | Speed | Heading |
|---|---|---|---|---|---|
| 2026-05-05 16:55 | 31.49110 | -123.61989 | 39126 ft | 539 kts | 86° |
| 2026-05-05 16:55 | 31.49279 | -123.57605 | 39116 ft | 539 kts | 86° |
| 2026-05-05 16:56 | 31.49611 | -123.48836 | 39113 ft | 539 kts | 86° |
| 2026-05-05 16:56 | 31.49937 | -123.40071 | 39114 ft | 538 kts | 86° |
| 2026-05-05 16:57 | 31.50256 | -123.31312 | 39111 ft | 538 kts | 86° |
| 2026-05-05 16:57 | 31.50473 | -123.25276 | 39093 ft | 538 kts | 86° |
| 2026-05-05 16:58 | 31.50668 | -123.19767 | 39111 ft | 538 kts | 86° |
| 2026-05-05 16:59 | 31.50974 | -123.11008 | 39126 ft | 538 kts | 86° |
| 2026-05-05 16:59 | 31.51275 | -123.02232 | 39119 ft | 539 kts | 86° |
| 2026-05-05 17:00 | 31.51566 | -122.93542 | 39115 ft | 540 kts | 86° |
| 2026-05-05 17:00 | 31.51855 | -122.84750 | 39124 ft | 540 kts | 86° |
| 2026-05-05 17:01 | 31.52138 | -122.75942 | 39115 ft | 541 kts | 86° |
| 2026-05-05 17:01 | 31.52415 | -122.67131 | 39111 ft | 541 kts | 86° |
| 2026-05-05 17:02 | 31.52686 | -122.58318 | 39122 ft | 541 kts | 86° |
| 2026-05-05 17:02 | 31.52952 | -122.49501 | 39112 ft | 541 kts | 86° |
| 2026-05-05 17:03 | 31.53211 | -122.40687 | 39112 ft | 541 kts | 87° |
| 2026-05-05 17:03 | 31.53464 | -122.31876 | 39128 ft | 541 kts | 87° |
| 2026-05-05 17:04 | 31.53709 | -122.23125 | 39113 ft | 541 kts | 87° |
| 2026-05-05 17:04 | 31.53950 | -122.14319 | 39111 ft | 540 kts | 87° |
| 2026-05-05 17:05 | 31.54185 | -122.05513 | 39132 ft | 540 kts | 87° |
| 2026-05-05 17:05 | 31.54411 | -121.96818 | 39119 ft | 540 kts | 87° |
| 2026-05-05 17:06 | 31.54633 | -121.88030 | 39111 ft | 539 kts | 87° |
| 2026-05-05 17:06 | 31.54850 | -121.79244 | 39122 ft | 538 kts | 87° |
| 2026-05-05 17:07 | 31.55060 | -121.70469 | 39110 ft | 538 kts | 87° |
| 2026-05-05 17:07 | 31.55264 | -121.61703 | 39110 ft | 537 kts | 87° |
| 2026-05-05 17:08 | 31.55461 | -121.52952 | 39107 ft | 537 kts | 87° |
| 2026-05-05 17:08 | 31.55654 | -121.44197 | 39081 ft | 537 kts | 88° |
| 2026-05-05 17:09 | 31.56698 | -121.35613 | 39095 ft | 528 kts | 65° |
| 2026-05-05 17:09 | 31.59555 | -121.27684 | 39110 ft | 530 kts | 63° |
| 2026-05-05 17:10 | 31.62487 | -121.19715 | 39121 ft | 534 kts | 64° |
| 2026-05-05 17:10 | 31.65320 | -121.11678 | 39128 ft | 537 kts | 65° |
| 2026-05-05 17:11 | 31.68090 | -121.03612 | 39089 ft | 528 kts | 65° |
| 2026-05-05 17:11 | 31.70791 | -120.95719 | 39108 ft | 525 kts | 65° |
| 2026-05-05 17:12 | 31.73079 | -120.89049 | 39108 ft | 526 kts | 65° |
| 2026-05-05 17:12 | 31.75795 | -120.81117 | 39066 ft | 517 kts | 65° |
| 2026-05-05 17:13 | 31.78445 | -120.73356 | 38586 ft | 511 kts | 65° |
| 2026-05-05 17:13 | 31.79776 | -120.69462 | 37923 ft | 516 kts | 65° |
| 2026-05-05 17:13 | 31.81118 | -120.65530 | 37359 ft | 519 kts | 65° |
| 2026-05-05 17:14 | 31.82461 | -120.61586 | 36825 ft | 520 kts | 65° |
| 2026-05-05 17:14 | 31.83804 | -120.57632 | 36307 ft | 521 kts | 65° |
| 2026-05-05 17:14 | 31.85145 | -120.53679 | 35880 ft | 520 kts | 65° |
| 2026-05-05 17:14 | 31.86479 | -120.49741 | 35550 ft | 516 kts | 65° |
| 2026-05-05 17:15 | 31.87801 | -120.45833 | 35266 ft | 512 kts | 65° |
| 2026-05-05 17:15 | 31.89115 | -120.41947 | 34824 ft | 511 kts | 65° |
| 2026-05-05 17:15 | 31.90440 | -120.38030 | 34022 ft | 520 kts | 65° |
| 2026-05-05 17:15 | 31.91769 | -120.34097 | 33221 ft | 525 kts | 65° |
| 2026-05-05 17:16 | 31.93114 | -120.30104 | 32595 ft | 524 kts | 65° |
| 2026-05-05 17:16 | 31.94681 | -120.26195 | 31967 ft | 517 kts | 53° |
| 2026-05-05 17:16 | 31.96874 | -120.23035 | 31541 ft | 500 kts | 41° |
| 2026-05-05 17:16 | 31.99302 | -120.20078 | 30630 ft | 505 kts | 41° |
| 2026-05-05 17:17 | 32.01761 | -120.17126 | 29938 ft | 506 kts | 41° |
| 2026-05-05 17:17 | 32.04204 | -120.14163 | 29573 ft | 502 kts | 41° |
| 2026-05-05 17:17 | 32.06621 | -120.11186 | 29188 ft | 504 kts | 42° |
| 2026-05-05 17:17 | 32.09036 | -120.08171 | 28716 ft | 506 kts | 43° |
| 2026-05-05 17:18 | 32.11466 | -120.05110 | 28386 ft | 518 kts | 43° |
| 2026-05-05 17:18 | 32.13948 | -120.01969 | 28059 ft | 525 kts | 43° |
| 2026-05-05 17:18 | 32.16382 | -119.98876 | 27680 ft | 524 kts | 43° |
| 2026-05-05 17:18 | 32.18850 | -119.95735 | 27211 ft | 519 kts | 43° |
| 2026-05-05 17:19 | 32.21288 | -119.92629 | 26748 ft | 513 kts | 43° |
| 2026-05-05 17:19 | 32.23704 | -119.89555 | 26294 ft | 508 kts | 43° |
| 2026-05-05 17:19 | 32.26101 | -119.86507 | 25855 ft | 503 kts | 43° |
| 2026-05-05 17:19 | 32.28470 | -119.83496 | 25407 ft | 498 kts | 43° |
| 2026-05-05 17:20 | 32.30817 | -119.80509 | 25000 ft | 494 kts | 44° |
| 2026-05-05 17:20 | 32.33146 | -119.77544 | 24569 ft | 490 kts | 44° |
| 2026-05-05 17:20 | 32.35454 | -119.74601 | 24156 ft | 486 kts | 44° |
| 2026-05-05 17:20 | 32.37737 | -119.71687 | 23741 ft | 481 kts | 44° |
| 2026-05-05 17:21 | 32.40003 | -119.68793 | 23253 ft | 477 kts | 44° |
| 2026-05-05 17:21 | 32.42243 | -119.65929 | 22805 ft | 472 kts | 44° |
| 2026-05-05 17:21 | 32.44448 | -119.63107 | 22411 ft | 460 kts | 44° |
| 2026-05-05 17:22 | 32.48670 | -119.57692 | 21636 ft | 435 kts | 44° |
| 2026-05-05 17:22 | 32.50690 | -119.55099 | 21375 ft | 422 kts | 44° |
| 2026-05-05 17:22 | 32.52651 | -119.52581 | 21138 ft | 413 kts | 44° |
| 2026-05-05 17:22 | 32.54613 | -119.50067 | 20943 ft | 415 kts | 44° |
| 2026-05-05 17:23 | 32.56561 | -119.47568 | 20783 ft | 410 kts | 44° |
| 2026-05-05 17:23 | 32.58487 | -119.45094 | 20617 ft | 406 kts | 44° |
| 2026-05-05 17:23 | 32.60369 | -119.42673 | 20468 ft | 403 kts | 44° |
| 2026-05-05 17:23 | 32.62262 | -119.40237 | 20313 ft | 400 kts | 44° |
| 2026-05-05 17:24 | 32.64142 | -119.37814 | 20164 ft | 399 kts | 44° |
| 2026-05-05 17:24 | 32.66022 | -119.35391 | 20015 ft | 398 kts | 44° |
| 2026-05-05 17:24 | 32.67896 | -119.32974 | 19870 ft | 398 kts | 44° |
| 2026-05-05 17:24 | 32.69772 | -119.30553 | 19714 ft | 398 kts | 44° |
| 2026-05-05 17:25 | 32.71648 | -119.28131 | 19566 ft | 399 kts | 44° |
| 2026-05-05 17:25 | 32.72916 | -119.26492 | 19471 ft | 399 kts | 44° |
| 2026-05-05 17:25 | 32.75415 | -119.23261 | 19115 ft | 404 kts | 45° |
| 2026-05-05 17:25 | 32.77323 | -119.20792 | 18780 ft | 405 kts | 45° |
| 2026-05-05 17:26 | 32.79214 | -119.18341 | 18507 ft | 399 kts | 45° |
| 2026-05-05 17:26 | 32.81072 | -119.15929 | 18260 ft | 393 kts | 45° |
| 2026-05-05 17:26 | 32.82917 | -119.13534 | 18027 ft | 392 kts | 45° |
| 2026-05-05 17:26 | 32.84771 | -119.11129 | 17820 ft | 403 kts | 45° |
| 2026-05-05 17:27 | 32.86731 | -119.08593 | 17662 ft | 426 kts | 45° |
| 2026-05-05 17:27 | 32.88741 | -119.05983 | 17444 ft | 429 kts | 45° |
| 2026-05-05 17:27 | 32.90754 | -119.03363 | 17247 ft | 428 kts | 45° |
| 2026-05-05 17:27 | 32.92754 | -119.00755 | 17028 ft | 425 kts | 45° |
| 2026-05-05 17:28 | 32.94697 | -118.98220 | 16805 ft | 422 kts | 45° |
| 2026-05-05 17:28 | 32.96672 | -118.95644 | 16617 ft | 420 kts | 45° |
| 2026-05-05 17:28 | 32.98639 | -118.93077 | 16407 ft | 419 kts | 45° |
| 2026-05-05 17:28 | 33.00597 | -118.90521 | 16204 ft | 418 kts | 45° |
| 2026-05-05 17:29 | 33.02555 | -118.87963 | 15997 ft | 418 kts | 45° |
| 2026-05-05 17:29 | 33.04514 | -118.85402 | 15807 ft | 418 kts | 45° |
| 2026-05-05 17:29 | 33.06457 | -118.82860 | 15575 ft | 408 kts | 45° |
| 2026-05-05 17:29 | 33.08336 | -118.80396 | 15354 ft | 395 kts | 45° |
| 2026-05-05 17:30 | 33.10154 | -118.78012 | 15134 ft | 382 kts | 45° |
| 2026-05-05 17:30 | 33.11889 | -118.75735 | 14922 ft | 361 kts | 45° |
| 2026-05-05 17:30 | 33.13539 | -118.73572 | 14752 ft | 354 kts | 45° |
| 2026-05-05 17:30 | 33.15197 | -118.71400 | 14581 ft | 353 kts | 45° |
| 2026-05-05 17:31 | 33.16848 | -118.69234 | 14416 ft | 353 kts | 45° |
| 2026-05-05 17:31 | 33.18499 | -118.67065 | 14251 ft | 353 kts | 45° |
| 2026-05-05 17:31 | 33.20115 | -118.64859 | 14083 ft | 353 kts | 47° |
| 2026-05-05 17:31 | 33.21704 | -118.62622 | 13921 ft | 353 kts | 47° |
| 2026-05-05 17:32 | 33.23286 | -118.60382 | 13744 ft | 353 kts | 47° |
| 2026-05-05 17:32 | 33.24871 | -118.58139 | 13560 ft | 352 kts | 47° |
| 2026-05-05 17:32 | 33.26452 | -118.55909 | 13413 ft | 351 kts | 47° |
| 2026-05-05 17:32 | 33.28024 | -118.53694 | 13294 ft | 348 kts | 47° |
| 2026-05-05 17:33 | 33.29584 | -118.51498 | 13192 ft | 345 kts | 47° |
| 2026-05-05 17:33 | 33.31136 | -118.49314 | 13061 ft | 344 kts | 47° |
| 2026-05-05 17:33 | 33.32684 | -118.47130 | 12883 ft | 343 kts | 49° |
| 2026-05-05 17:33 | 33.33856 | -118.44659 | 12674 ft | 347 kts | 71° |
| 2026-05-05 17:34 | 33.34182 | -118.41783 | 12491 ft | 351 kts | 91° |
| 2026-05-05 17:34 | 33.34026 | -118.38855 | 12360 ft | 354 kts | 94° |
| 2026-05-05 17:34 | 33.33831 | -118.35902 | 12191 ft | 355 kts | 94° |
| 2026-05-05 17:34 | 33.33638 | -118.32981 | 12010 ft | 350 kts | 94° |
| 2026-05-05 17:35 | 33.33457 | -118.30108 | 11827 ft | 344 kts | 94° |
| 2026-05-05 17:35 | 33.33285 | -118.27268 | 11628 ft | 341 kts | 94° |
| 2026-05-05 17:35 | 33.33121 | -118.24450 | 11462 ft | 339 kts | 94° |
| 2026-05-05 17:35 | 33.32960 | -118.21620 | 11388 ft | 343 kts | 94° |
| 2026-05-05 17:36 | 33.32798 | -118.18762 | 11321 ft | 346 kts | 94° |
| 2026-05-05 17:36 | 33.32634 | -118.15890 | 11248 ft | 345 kts | 94° |
| 2026-05-05 17:36 | 33.32474 | -118.13034 | 11164 ft | 342 kts | 92° |
| 2026-05-05 17:36 | 33.32748 | -118.10251 | 11039 ft | 338 kts | 69° |
| 2026-05-05 17:37 | 33.33838 | -118.07836 | 10977 ft | 335 kts | 49° |
| 2026-05-05 17:37 | 33.34870 | -118.06477 | 10954 ft | 334 kts | 43° |
| 2026-05-05 17:37 | 33.37070 | -118.03835 | 10864 ft | 336 kts | 43° |
| 2026-05-05 17:37 | 33.38713 | -118.01845 | 10787 ft | 334 kts | 41° |
| 2026-05-05 17:38 | 33.40599 | -118.00299 | 10686 ft | 329 kts | 19° |
| 2026-05-05 17:38 | 33.42744 | -117.99722 | 10626 ft | 314 kts | 0° |
| 2026-05-05 17:38 | 33.44836 | -117.99765 | 10411 ft | 290 kts | 354° |
| 2026-05-05 17:38 | 33.46798 | -117.99886 | 9961 ft | 279 kts | 354° |
| 2026-05-05 17:39 | 33.48737 | -118.00014 | 9644 ft | 277 kts | 354° |
| 2026-05-05 17:39 | 33.50650 | -118.00129 | 9386 ft | 273 kts | 354° |
| 2026-05-05 17:39 | 33.52543 | -118.00232 | 9096 ft | 271 kts | 355° |
| 2026-05-05 17:39 | 33.54392 | -118.00325 | 9026 ft | 263 kts | 355° |
| 2026-05-05 17:40 | 33.56231 | -118.00415 | 9006 ft | 267 kts | 355° |
| 2026-05-05 17:40 | 33.58109 | -118.00507 | 9007 ft | 273 kts | 355° |
| 2026-05-05 17:40 | 33.60140 | -118.00602 | 8694 ft | 280 kts | 355° |
| 2026-05-05 17:40 | 33.62088 | -118.00688 | 8401 ft | 279 kts | 355° |
| 2026-05-05 17:41 | 33.64022 | -118.00773 | 8094 ft | 278 kts | 355° |
| 2026-05-05 17:41 | 33.65889 | -118.01053 | 7893 ft | 266 kts | 344° |
| 2026-05-05 17:41 | 33.67626 | -118.01648 | 7772 ft | 258 kts | 340° |
| 2026-05-05 17:41 | 33.69330 | -118.02291 | 7645 ft | 258 kts | 340° |
| 2026-05-05 17:42 | 33.71062 | -118.02932 | 7520 ft | 263 kts | 341° |
| 2026-05-05 17:42 | 33.72811 | -118.03557 | 7416 ft | 260 kts | 341° |
| 2026-05-05 17:42 | 33.74527 | -118.04156 | 7256 ft | 253 kts | 342° |
| 2026-05-05 17:42 | 33.76186 | -118.04730 | 7105 ft | 246 kts | 341° |
| 2026-05-05 17:43 | 33.77808 | -118.05291 | 6976 ft | 239 kts | 342° |
| 2026-05-05 17:43 | 33.79374 | -118.05920 | 6709 ft | 236 kts | 336° |
| 2026-05-05 17:43 | 33.80882 | -118.06655 | 6456 ft | 233 kts | 335° |
| 2026-05-05 17:43 | 33.82378 | -118.07393 | 6176 ft | 231 kts | 336° |
| 2026-05-05 17:44 | 33.83862 | -118.08115 | 5908 ft | 228 kts | 336° |
| 2026-05-05 17:44 | 33.85316 | -118.08818 | 5640 ft | 226 kts | 337° |
| 2026-05-05 17:44 | 33.86298 | -118.09291 | 5444 ft | 224 kts | 337° |
| 2026-05-05 17:44 | 33.87736 | -118.09982 | 5197 ft | 221 kts | 337° |
| 2026-05-05 17:45 | 33.89635 | -118.10779 | 4998 ft | 212 kts | 350° |
| 2026-05-05 17:45 | 33.90593 | -118.10890 | 4997 ft | 206 kts | 355° |
| 2026-05-05 17:45 | 33.91981 | -118.10959 | 4995 ft | 193 kts | 358° |
| 2026-05-05 17:45 | 33.93285 | -118.11199 | 4947 ft | 188 kts | 326° |
| 2026-05-05 17:46 | 33.94281 | -118.12184 | 4996 ft | 187 kts | 319° |
| 2026-05-05 17:46 | 33.95278 | -118.13187 | 4712 ft | 186 kts | 312° |
| 2026-05-05 17:46 | 33.95796 | -118.14583 | 4253 ft | 185 kts | 273° |
| 2026-05-05 17:46 | 33.95799 | -118.16104 | 3828 ft | 180 kts | 270° |
| 2026-05-05 17:47 | 33.95773 | -118.17601 | 3539 ft | 176 kts | 266° |
| 2026-05-05 17:47 | 33.95674 | -118.19083 | 3287 ft | 179 kts | 263° |
| 2026-05-05 17:47 | 33.95537 | -118.20561 | 3052 ft | 177 kts | 262° |
| 2026-05-05 17:47 | 33.95390 | -118.22035 | 2799 ft | 177 kts | 262° |
| 2026-05-05 17:48 | 33.95241 | -118.23497 | 2553 ft | 175 kts | 262° |
| 2026-05-05 17:48 | 33.95095 | -118.24929 | 2349 ft | 171 kts | 262° |
| 2026-05-05 17:48 | 33.94953 | -118.26323 | 2095 ft | 165 kts | 263° |
| 2026-05-05 17:48 | 33.94821 | -118.27632 | 1898 ft | 149 kts | 262° |
| 2026-05-05 17:49 | 33.94692 | -118.28893 | 1684 ft | 139 kts | 261° |
| 2026-05-05 17:49 | 33.94577 | -118.30011 | 1509 ft | 142 kts | 262° |
| 2026-05-05 17:49 | 33.94457 | -118.31195 | 1339 ft | 141 kts | 262° |
| 2026-05-05 17:49 | 33.94344 | -118.32346 | 1141 ft | 135 kts | 262° |
| 2026-05-05 17:50 | 33.94234 | -118.33462 | 968 ft | 134 kts | 262° |
| 2026-05-05 17:50 | 33.94097 | -118.34594 | 755 ft | 135 kts | 262° |
| 2026-05-05 17:50 | 33.93991 | -118.35723 | 570 ft | 135 kts | 263° |
| 2026-05-05 17:50 | 33.93876 | -118.36826 | 393 ft | 131 kts | 263° |
| 2026-05-05 17:51 | 33.93767 | -118.37892 | 244 ft | 129 kts | 264° |
| 2026-05-05 17:51 | 33.93661 | -118.38965 | 132 ft | 123 kts | 262° |
| 2026-05-05 17:51 | 33.93577 | -118.39809 | 127 ft | 76 kts | 263° |
| 2026-05-05 17:51 | 33.93534 | -118.40276 | 127 ft | 43 kts | 268° |
| 2026-05-05 17:52 | 33.93552 | -118.40503 | 126 ft | 7 kts | 283° |
| 2026-05-05 17:52 | 33.93556 | -118.40518 | 127 ft | 1 kts | 285° |
| 2026-05-05 17:52 | 33.93557 | -118.40522 | 128 ft | 0 kts | 285° |
| 2026-05-05 17:52 | 33.93557 | -118.40525 | 128 ft | 2 kts | 285° |
| 2026-05-05 17:53 | 33.93573 | -118.40583 | 125 ft | 13 kts | 290° |
| 2026-05-05 17:53 | 33.93596 | -118.40737 | 127 ft | 22 kts | 265° |
| 2026-05-05 17:53 | 33.93601 | -118.40820 | 127 ft | 8 kts | 283° |
| 2026-05-05 17:53 | 33.93672 | -118.40893 | 128 ft | 21 kts | 342° |
| 2026-05-05 17:54 | 33.93781 | -118.40912 | 131 ft | 4 kts | 353° |
| 2026-05-05 17:54 | 33.93817 | -118.40918 | 128 ft | 8 kts | 353° |
| 2026-05-05 17:54 | 33.93826 | -118.40919 | 128 ft | 0 kts | 353° |
| 2026-05-05 17:55 | 33.93837 | -118.40915 | 128 ft | 6 kts | 15° |
| 2026-05-05 17:55 | 33.93872 | -118.40844 | 129 ft | 13 kts | 79° |
| 2026-05-05 17:55 | 33.93879 | -118.40790 | 131 ft | 0 kts | 82° |
| 2026-05-05 17:55 | 33.93881 | -118.40775 | 131 ft | 6 kts | 82° |
| 2026-05-05 17:56 | 33.93893 | -118.40676 | 129 ft | 18 kts | 82° |
| 2026-05-05 17:56 | 33.93899 | -118.40617 | 127 ft | 10 kts | 85° |
| 2026-05-05 17:56 | 33.93974 | -118.40546 | 128 ft | 20 kts | 0° |
| 2026-05-05 17:56 | 33.94069 | -118.40560 | 127 ft | 17 kts | 352° |
| 2026-05-05 17:57 | 33.94108 | -118.40566 | 128 ft | 3 kts | 355° |
| 2026-05-05 17:57 | 33.94142 | -118.40535 | 129 ft | 1 kts | 75° |
| 2026-05-05 17:57 | 33.94145 | -118.40522 | 127 ft | 0 kts | 77° |